Time;durP1;ratioP1;P1;durP2;ratioP2;P2;SDS_P1;SDS_P2;PMS_P1;PMS_P2;Temp;Humidity;BMP_temperature;BMP_pressure;BME280_temperature;BME280_humidity;BME280_pressure;Samples;Min_cycle;Max_cycle;Signal;HPM_P1;HPM_P2
2023/09/09 01:17:52;;;;;;;8.77;6.63;;;27.60;77.90;;;;;;5065855;28;20079;-62
2023/09/09 01:20:19;;;;;;;8.65;6.22;;;27.40;79.00;;;;;;5064905;28;20049;-63
2023/09/09 01:22:50;;;;;;;8.23;6.70;;;27.60;78.90;;;;;;5063551;28;20045;-69
2023/09/09 01:25:18;;;;;;;7.65;6.32;;;27.80;78.80;;;;;;5038255;28;20052;-62
2023/09/09 01:27:44;;;;;;;7.75;5.72;;;27.60;77.70;;;;;;5065804;28;20583;-63
2023/09/09 01:30:13;;;;;;;8.93;7.35;;;27.60;78.50;;;;;;5082093;28;20128;-63
2023/09/09 01:32:39;;;;;;;8.23;6.15;;;27.50;77.80;;;;;;5020703;28;20457;-62
2023/09/09 01:35:05;;;;;;;9.15;7.03;;;27.60;78.70;;;;;;5023802;28;20048;-63
2023/09/09 01:37:31;;;;;;;8.45;6.85;;;27.40;78.30;;;;;;5036374;28;20124;-64
2023/09/09 01:39:57;;;;;;;9.57;6.90;;;27.70;78.70;;;;;;5053050;28;20045;-63
2023/09/09 01:42:23;;;;;;;7.40;6.40;;;27.30;78.40;;;;;;5064505;28;20036;-63
2023/09/09 01:44:49;;;;;;;7.07;5.65;;;27.70;78.80;;;;;;5079494;28;20482;-62
2023/09/09 01:47:14;;;;;;;8.48;6.30;;;27.50;79.30;;;;;;5040756;28;20110;-64
2023/09/09 01:49:43;;;;;;;7.13;5.95;;;27.50;78.60;;;;;;5039387;28;20437;-62
2023/09/09 01:52:09;;;;;;;8.93;6.90;;;27.50;78.80;;;;;;5059269;28;20044;-62
2023/09/09 01:54:35;;;;;;;8.57;6.65;;;27.60;78.70;;;;;;5037393;28;20099;-62
2023/09/09 01:57:04;;;;;;;7.60;6.32;;;27.30;78.70;;;;;;5036927;28;20068;-66
2023/09/09 01:59:30;;;;;;;7.78;6.65;;;27.50;78.30;;;;;;5021135;28;20040;-63
2023/09/09 02:01:56;;;;;;;8.80;6.55;;;27.20;78.40;;;;;;5038365;28;20106;-63
2023/09/09 02:04:22;;;;;;;9.00;6.85;;;27.60;78.80;;;;;;5074833;28;20040;-62
2023/09/09 02:06:47;;;;;;;9.93;7.32;;;27.40;78.60;;;;;;5040159;28;20055;-63
2023/09/09 02:09:13;;;;;;;7.80;6.82;;;27.40;78.80;;;;;;5065145;28;20041;-62
2023/09/09 02:11:39;;;;;;;8.50;7.03;;;27.60;78.80;;;;;;5038834;28;20406;-63
2023/09/09 02:14:05;;;;;;;8.13;7.10;;;27.50;78.90;;;;;;5039649;28;20040;-63
2023/09/09 02:16:31;;;;;;;8.23;7.18;;;27.50;78.80;;;;;;5056105;28;20083;-63
2023/09/09 02:18:57;;;;;;;8.55;7.40;;;27.30;78.80;;;;;;5078001;28;20403;-63
2023/09/09 02:21:23;;;;;;;7.90;7.10;;;27.30;78.70;;;;;;5047579;28;20044;-63
2023/09/09 02:23:49;;;;;;;10.27;7.57;;;27.40;78.60;;;;;;5051368;28;20510;-63
2023/09/09 02:26:15;;;;;;;8.60;7.15;;;27.50;78.90;;;;;;5021448;28;20502;-63
2023/09/09 02:28:41;;;;;;;8.15;7.10;;;27.10;78.70;;;;;;5019517;28;20095;-62
2023/09/09 02:31:06;;;;;;;8.57;6.75;;;27.10;79.00;;;;;;5045274;28;20048;-62
2023/09/09 02:33:32;;;;;;;9.85;7.97;;;27.20;78.50;;;;;;5073332;28;20056;-62
2023/09/09 02:35:59;;;;;;;8.20;7.30;;;27.50;79.00;;;;;;5069566;28;20070;-63
2023/09/09 02:38:26;;;;;;;8.50;6.47;;;27.30;78.80;;;;;;5053865;28;20052;-63
2023/09/09 02:40:51;;;;;;;8.02;6.93;;;27.20;78.80;;;;;;5070101;28;20048;-63
2023/09/09 02:43:17;;;;;;;8.30;7.10;;;27.30;78.80;;;;;;5036274;28;20123;-62
2023/09/09 02:45:43;;;;;;;10.55;7.63;;;27.40;79.60;;;;;;5063067;28;20389;-63
2023/09/09 02:48:09;;;;;;;8.55;6.70;;;27.60;79.10;;;;;;5070441;28;20123;-70
2023/09/09 02:50:35;;;;;;;8.52;7.55;;;27.40;78.60;;;;;;5068925;28;20044;-63
2023/09/09 02:53:01;;;;;;;8.77;7.85;;;27.30;78.90;;;;;;5039568;28;20083;-63
2023/09/09 02:55:27;;;;;;;8.77;7.60;;;27.30;78.90;;;;;;5053354;28;20092;-62
2023/09/09 02:57:53;;;;;;;10.23;7.75;;;27.40;78.90;;;;;;5033023;28;20084;-71
2023/09/09 03:00:19;;;;;;;8.65;7.07;;;27.30;78.90;;;;;;5065589;28;20068;-70
2023/09/09 03:02:45;;;;;;;11.30;8.40;;;27.30;78.80;;;;;;5068661;28;20044;-71
2023/09/09 03:05:11;;;;;;;8.40;7.43;;;27.30;78.80;;;;;;5056020;28;20126;-69
2023/09/09 03:07:37;;;;;;;8.77;7.80;;;27.30;79.00;;;;;;5047821;28;20045;-71
2023/09/09 03:10:04;;;;;;;7.85;6.95;;;27.30;79.20;;;;;;5028690;28;20086;-71
2023/09/09 03:12:30;;;;;;;9.10;7.32;;;27.40;78.90;;;;;;5060754;28;20123;-71
2023/09/09 03:15:05;;;;;;;10.23;7.53;;;27.30;79.40;;;;;;5035419;28;20045;-65
2023/09/09 03:17:32;;;;;;;7.88;6.88;;;28.10;80.20;;;;;;5064508;28;20036;-71
2023/09/09 03:19:58;;;;;;;9.48;6.95;;;27.40;79.20;;;;;;5031991;28;20520;-69
2023/09/09 03:22:27;;;;;;;8.88;6.78;;;27.10;78.80;;;;;;5012022;28;20088;-73
2023/09/09 03:24:53;;;;;;;9.68;7.53;;;27.40;78.40;;;;;;5052544;28;20117;-71
2023/09/09 03:27:20;;;;;;;9.63;7.15;;;27.50;79.70;;;;;;5036527;28;20053;-71
2023/09/09 03:29:46;;;;;;;9.20;7.10;;;27.50;79.90;;;;;;5084847;28;20052;-71
2023/09/09 03:32:12;;;;;;;8.80;7.75;;;27.50;80.00;;;;;;5068622;28;20387;-63
2023/09/09 03:34:39;;;;;;;9.10;6.82;;;27.10;79.00;;;;;;5063416;28;20083;-62
2023/09/09 03:37:05;;;;;;;7.28;6.43;;;27.40;79.30;;;;;;5055089;28;20052;-71
2023/09/09 03:39:30;;;;;;;8.43;7.40;;;26.40;78.70;;;;;;5022735;28;20045;-71
2023/09/09 03:41:56;;;;;;;9.20;7.28;;;27.30;79.20;;;;;;5072535;28;20044;-68
2023/09/09 03:44:22;;;;;;;9.15;7.53;;;27.10;79.40;;;;;;5067802;28;20041;-71
2023/09/09 03:46:48;;;;;;;8.75;6.93;;;27.40;79.30;;;;;;5078956;28;20071;-72
2023/09/09 03:49:14;;;;;;;8.73;7.35;;;27.20;79.30;;;;;;5038499;28;20136;-63
2023/09/09 03:51:40;;;;;;;9.10;7.38;;;27.30;79.30;;;;;;5038235;28;20044;-71
2023/09/09 03:54:06;;;;;;;8.88;7.45;;;28.10;79.50;;;;;;5037307;28;20043;-71
2023/09/09 03:56:32;;;;;;;8.05;7.25;;;27.30;79.10;;;;;;5053784;28;20119;-70
2023/09/09 03:58:58;;;;;;;8.73;6.82;;;27.30;79.50;;;;;;5040963;28;20409;-62
2023/09/09 04:01:24;;;;;;;8.63;7.55;;;27.20;79.30;;;;;;5054238;28;20133;-70
2023/09/09 04:03:50;;;;;;;8.45;7.50;;;27.30;79.40;;;;;;5035608;28;20120;-69
2023/09/09 04:06:19;;;;;;;8.32;7.38;;;27.10;79.30;;;;;;5041406;28;20426;-70
2023/09/09 04:08:45;;;;;;;9.15;7.55;;;27.30;78.50;;;;;;5033540;28;20068;-71
2023/09/09 04:11:11;;;;;;;8.73;7.13;;;27.10;79.30;;;;;;5069665;28;20033;-73
2023/09/09 04:13:38;;;;;;;8.38;7.20;;;27.20;79.50;;;;;;5028590;28;20490;-70
2023/09/09 04:16:04;;;;;;;8.90;7.63;;;27.30;79.60;;;;;;5055115;28;20044;-71
2023/09/09 04:18:30;;;;;;;8.30;7.03;;;27.10;79.30;;;;;;5040412;28;20044;-71
2023/09/09 04:20:56;;;;;;;8.02;6.47;;;27.10;79.50;;;;;;5076304;28;20432;-69
2023/09/09 04:23:22;;;;;;;8.45;7.00;;;27.40;79.60;;;;;;5058417;28;20486;-63
2023/09/09 04:25:47;;;;;;;10.00;7.80;;;27.20;79.50;;;;;;5047207;28;20040;-72
2023/09/09 04:28:13;;;;;;;8.25;6.88;;;27.30;79.80;;;;;;5045671;28;20084;-64
2023/09/09 04:30:40;;;;;;;16.45;13.57;;;27.20;79.30;;;;;;5059190;28;20045;-73
2023/09/09 04:33:12;;;;;;;16.67;14.90;;;27.20;79.30;;;;;;5026829;28;20098;-71
2023/09/09 04:35:39;;;;;;;20.95;17.88;;;27.00;79.50;;;;;;5054525;28;20453;-64
2023/09/09 04:38:06;;;;;;;21.98;18.25;;;27.20;79.50;;;;;;5052123;28;20048;-74
2023/09/09 04:40:33;;;;;;;22.15;19.95;;;27.10;79.70;;;;;;5029020;28;20457;-71
2023/09/09 04:42:59;;;;;;;22.02;19.67;;;27.00;79.90;;;;;;5055858;28;20044;-74
2023/09/09 04:45:25;;;;;;;23.50;19.77;;;26.90;79.80;;;;;;5045595;28;20509;-75
2023/09/09 04:47:51;;;;;;;23.80;20.48;;;27.00;80.00;;;;;;5034094;28;20052;-75
2023/09/09 04:50:20;;;;;;;23.40;20.92;;;27.00;80.40;;;;;;5035227;28;20130;-71
2023/09/09 04:52:48;;;;;;;24.40;21.95;;;26.30;80.50;;;;;;5044104;28;20046;-73
2023/09/09 04:55:15;;;;;;;25.52;21.75;;;26.70;81.20;;;;;;5037495;28;20123;-69
2023/09/09 04:57:41;;;;;;;24.27;21.17;;;26.60;81.70;;;;;;5069408;28;20052;-70
2023/09/09 05:00:07;;;;;;;24.58;21.88;;;26.50;81.90;;;;;;5073238;28;20037;-70
2023/09/09 05:02:34;;;;;;;23.48;20.98;;;26.20;81.30;;;;;;5069675;28;20048;-73
2023/09/09 05:05:03;;;;;;;22.48;20.08;;;26.20;82.00;;;;;;5037478;28;20063;-74
2023/09/09 05:07:34;;;;;;;23.90;20.00;;;24.80;81.10;;;;;;5050440;28;20478;-73
2023/09/09 05:10:01;;;;;;;24.45;21.85;;;26.20;82.30;;;;;;5004778;28;20409;-73
2023/09/09 05:12:27;;;;;;;27.85;22.15;;;26.00;82.10;;;;;;5019211;28;20376;-74
2023/09/09 05:14:53;;;;;;;23.70;21.30;;;25.80;82.20;;;;;;5039953;28;20102;-73
2023/09/09 05:17:19;;;;;;;24.50;20.67;;;25.60;81.80;;;;;;5050920;28;20098;-72
2023/09/09 05:19:45;;;;;;;23.25;20.85;;;25.70;82.40;;;;;;5042041;28;20072;-63
2023/09/09 05:22:11;;;;;;;23.98;21.48;;;25.50;82.10;;;;;;5055897;28;20502;-74
2023/09/09 05:24:37;;;;;;;23.92;21.48;;;25.60;81.90;;;;;;5020721;28;20048;-71
2023/09/09 05:27:06;;;;;;;26.63;20.73;;;25.50;82.20;;;;;;5049831;28;20097;-74
2023/09/09 05:33:09;;;;;;;27.70;22.50;;;25.80;81.40;;;;;;5054100;28;20485;-70
2023/09/09 05:35:41;;;;;;;23.73;21.27;;;25.40;81.40;;;;;;5075499;28;20542;-73
2023/09/09 05:38:06;;;;;;;24.60;22.23;;;25.60;82.90;;;;;;5055492;28;20182;-75
2023/09/09 05:40:32;;;;;;;24.90;22.42;;;25.70;82.50;;;;;;5024393;28;20127;-62
2023/09/09 05:42:58;;;;;;;24.92;22.48;;;25.60;82.10;;;;;;5071906;28;20486;-63
2023/09/09 05:45:27;;;;;;;24.70;22.02;;;25.50;82.10;;;;;;5057119;28;20185;-73
2023/09/09 05:47:53;;;;;;;25.98;23.17;;;25.40;85.10;;;;;;5053890;28;20044;-75
2023/09/09 05:50:22;;;;;;;26.23;22.52;;;25.60;82.20;;;;;;5055885;28;20129;-75
2023/09/09 05:52:48;;;;;;;26.90;23.75;;;25.60;80.90;;;;;;5055885;28;20182;-76
2023/09/09 05:55:14;;;;;;;26.35;23.52;;;25.40;82.40;;;;;;5040580;28;20076;-75
2023/09/09 05:57:40;;;;;;;26.27;23.15;;;25.80;82.90;;;;;;5040323;28;20101;-75
2023/09/09 06:00:07;;;;;;;26.88;24.00;;;25.20;82.20;;;;;;5021741;28;20490;-74
2023/09/09 06:02:33;;;;;;;28.08;24.13;;;25.30;82.20;;;;;;5008098;28;20049;-74
2023/09/09 06:04:59;;;;;;;30.45;24.40;;;25.30;83.20;;;;;;5071158;28;20033;-75
2023/09/09 06:07:25;;;;;;;27.60;22.98;;;24.90;83.70;;;;;;5042857;28;20048;-72
2023/09/09 06:09:51;;;;;;;27.27;23.42;;;25.80;84.60;;;;;;5028787;28;20043;-70
2023/09/09 06:12:17;;;;;;;25.25;22.58;;;25.00;83.80;;;;;;5041650;28;20041;-68
2023/09/09 06:14:46;;;;;;;23.80;19.70;;;25.70;84.20;;;;;;5016934;28;20084;-70
2023/09/09 06:17:13;;;;;;;19.33;17.02;;;24.70;83.40;;;;;;5074061;28;20090;-71
2023/09/09 06:19:40;;;;;;;18.00;14.75;;;25.30;83.30;;;;;;5056738;28;20045;-70
2023/09/09 06:22:06;;;;;;;16.05;12.73;;;25.40;83.60;;;;;;5055370;28;20059;-70
2023/09/09 06:24:32;;;;;;;15.40;12.73;;;26.00;83.40;;;;;;5071039;28;20029;-71
2023/09/09 06:26:58;;;;;;;15.27;12.00;;;26.10;82.50;;;;;;5072219;28;20511;-71
2023/09/09 06:29:26;;;;;;;14.55;11.50;;;26.10;82.00;;;;;;5056346;28;20049;-71
2023/09/09 06:31:51;;;;;;;15.68;11.50;;;26.20;82.10;;;;;;5056361;28;20201;-71
2023/09/09 06:34:17;;;;;;;12.82;10.02;;;24.80;80.20;;;;;;5055754;28;20048;-71
2023/09/09 06:36:43;;;;;;;12.35;9.82;;;26.50;80.80;;;;;;5034387;28;20044;-71
2023/09/09 06:39:12;;;;;;;12.10;9.70;;;26.70;80.90;;;;;;5055162;28;20048;-71
2023/09/09 06:41:38;;;;;;;11.23;9.38;;;27.20;79.50;;;;;;5054356;28;20064;-71
2023/09/09 06:44:04;;;;;;;11.02;9.55;;;27.20;79.90;;;;;;5055513;28;20056;-70
2023/09/09 06:46:30;;;;;;;10.48;9.10;;;27.60;79.50;;;;;;5068675;28;20162;-71
2023/09/09 06:48:56;;;;;;;9.80;8.80;;;27.60;79.60;;;;;;5025724;28;20139;-71
2023/09/09 06:51:22;;;;;;;9.73;8.48;;;27.50;79.10;;;;;;5041329;28;20449;-69
2023/09/09 06:53:48;;;;;;;10.80;8.15;;;27.70;78.70;;;;;;5036266;28;20100;-73
2023/09/09 06:56:14;;;;;;;11.38;8.65;;;28.00;78.90;;;;;;5054628;28;20136;-72
2023/09/09 06:58:40;;;;;;;10.25;8.57;;;27.70;78.50;;;;;;5019437;28;20049;-71
2023/09/09 07:01:06;;;;;;;10.70;8.05;;;28.60;78.60;;;;;;5020197;28;20037;-71
2023/09/09 07:03:32;;;;;;;11.00;7.88;;;28.30;78.00;;;;;;5052097;28;20098;-71
2023/09/09 07:06:00;;;;;;;9.52;7.88;;;28.20;77.90;;;;;;5066467;28;20472;-70
2023/09/09 07:08:26;;;;;;;8.73;7.55;;;28.50;77.80;;;;;;5035667;28;20087;-71
2023/09/09 07:10:52;;;;;;;12.10;8.73;;;28.30;77.50;;;;;;5019397;28;20415;-71
2023/09/09 07:13:19;;;;;;;9.57;7.50;;;28.80;77.50;;;;;;5070696;28;20091;-71
2023/09/09 07:15:45;;;;;;;8.90;7.50;;;28.70;77.10;;;;;;5052025;28;20040;-71
2023/09/09 07:18:11;;;;;;;10.30;7.75;;;28.80;76.80;;;;;;5018996;28;20045;-71
2023/09/09 07:20:38;;;;;;;8.95;8.05;;;28.80;77.20;;;;;;5053267;28;20486;-71
2023/09/09 07:23:04;;;;;;;8.98;7.72;;;28.80;76.80;;;;;;5068480;28;20049;-71
2023/09/09 07:25:31;;;;;;;9.50;7.60;;;28.90;76.50;;;;;;5053829;28;20052;-71
2023/09/09 07:27:57;;;;;;;9.02;7.47;;;29.50;76.50;;;;;;5071835;28;20056;-71
2023/09/09 07:30:23;;;;;;;8.02;6.97;;;29.10;76.50;;;;;;5057637;28;20080;-70
2023/09/09 07:32:49;;;;;;;9.07;7.30;;;29.30;76.40;;;;;;5053289;28;20051;-71
2023/09/09 07:35:15;;;;;;;10.35;7.40;;;29.30;76.20;;;;;;5053014;28;20128;-72
2023/09/09 07:37:41;;;;;;;9.38;7.38;;;29.10;76.00;;;;;;5056508;28;20127;-69
2023/09/09 07:40:07;;;;;;;9.02;7.65;;;29.30;76.40;;;;;;5053302;28;20045;-71
2023/09/09 07:42:33;;;;;;;8.63;7.72;;;29.40;75.50;;;;;;5052837;28;20049;-71
2023/09/09 07:44:59;;;;;;;8.18;7.28;;;29.60;76.40;;;;;;5062810;28;20044;-71
2023/09/09 07:47:25;;;;;;;8.80;7.10;;;29.40;75.60;;;;;;5065438;28;20047;-71
2023/09/09 07:49:51;;;;;;;8.70;7.03;;;29.70;75.50;;;;;;5071610;28;20048;-72
2023/09/09 07:52:20;;;;;;;9.57;7.10;;;32.00;77.50;;;;;;5068063;28;20143;-71
2023/09/09 07:54:48;;;;;;;8.32;7.25;;;30.00;76.20;;;;;;5034797;28;20143;-71
2023/09/09 07:57:15;;;;;;;7.63;6.57;;;30.00;76.40;;;;;;5020140;28;20221;-72
2023/09/09 07:59:41;;;;;;;10.15;6.82;;;29.70;75.30;;;;;;5055059;28;20044;-72
2023/09/09 08:02:07;;;;;;;7.97;6.80;;;29.90;75.20;;;;;;5054324;28;20062;-71
2023/09/09 08:04:32;;;;;;;9.50;7.57;;;29.70;75.10;;;;;;5068247;28;20095;-72
2023/09/09 08:06:58;;;;;;;9.05;7.00;;;30.00;75.40;;;;;;5047671;28;20036;-71
2023/09/09 08:09:26;;;;;;;9.65;7.38;;;30.20;75.40;;;;;;5036286;28;20561;-72
2023/09/09 08:11:52;;;;;;;7.97;7.18;;;30.10;75.30;;;;;;5055122;28;20048;-72
2023/09/09 08:14:18;;;;;;;8.45;6.93;;;30.10;75.20;;;;;;5022007;28;20051;-71
2023/09/09 08:16:46;;;;;;;9.13;6.70;;;30.30;75.30;;;;;;5071543;28;20060;-72
2023/09/09 08:19:12;;;;;;;8.13;7.28;;;30.40;75.60;;;;;;5085486;28;20494;-72
2023/09/09 08:21:38;;;;;;;8.68;7.22;;;27.70;72.90;;;;;;5067255;28;20045;-72
2023/09/09 08:24:05;;;;;;;9.35;7.28;;;30.10;74.70;;;;;;5052523;28;20044;-71
2023/09/09 08:26:30;;;;;;;9.50;6.47;;;30.20;74.40;;;;;;5001893;28;20541;-69
2023/09/09 08:28:56;;;;;;;8.07;6.63;;;30.20;75.00;;;;;;5058793;28;20044;-71
2023/09/09 08:31:22;;;;;;;7.80;6.70;;;30.20;74.70;;;;;;5038014;28;20049;-71
2023/09/09 08:33:48;;;;;;;8.10;6.28;;;30.50;74.80;;;;;;5071214;28;20041;-71
2023/09/09 08:36:15;;;;;;;7.72;6.13;;;30.00;74.50;;;;;;5070333;28;20048;-72
2023/09/09 08:38:44;;;;;;;7.45;6.40;;;30.40;75.80;;;;;;5045607;28;20461;-72
2023/09/09 08:41:23;;;;;;;7.60;6.63;;;30.30;73.80;;;;;;5034023;28;20037;-71
2023/09/09 08:43:58;;;;;;;8.70;6.60;;;30.50;75.30;;;;;;5018063;28;20041;-71
2023/09/09 08:46:24;;;;;;;7.90;6.63;;;30.50;75.20;;;;;;5034189;28;20045;-69
2023/09/09 08:48:50;;;;;;;7.70;6.53;;;32.50;75.90;;;;;;5065667;28;20047;-72
2023/09/09 08:51:17;;;;;;;8.88;6.65;;;30.30;74.70;;;;;;5042241;28;20170;-71
2023/09/09 08:53:43;;;;;;;8.07;6.82;;;30.30;74.70;;;;;;5054529;28;20044;-69
2023/09/09 08:56:12;;;;;;;8.77;6.90;;;30.60;74.90;;;;;;5062730;28;20041;-71
2023/09/09 08:58:37;;;;;;;7.22;6.18;;;30.60;74.70;;;;;;5025834;28;20041;-71
2023/09/09 09:01:06;;;;;;;8.63;6.60;;;30.60;75.40;;;;;;5036677;28;20041;-68
2023/09/09 09:03:33;;;;;;;8.50;6.38;;;31.30;75.00;;;;;;5027645;28;20179;-68
2023/09/09 09:06:00;;;;;;;7.28;6.30;;;31.20;75.60;;;;;;5035626;28;20394;-68
2023/09/09 09:08:27;;;;;;;7.70;6.53;;;30.50;74.80;;;;;;5059478;28;20462;-69
2023/09/09 09:10:53;;;;;;;7.63;6.70;;;28.40;73.50;;;;;;5058047;28;20486;-70
2023/09/09 09:13:19;;;;;;;7.05;6.15;;;30.80;75.00;;;;;;5041285;28;20040;-72
2023/09/09 09:15:45;;;;;;;8.60;6.57;;;30.50;74.90;;;;;;5073599;28;20051;-72
2023/09/09 09:18:11;;;;;;;9.13;6.57;;;30.80;74.90;;;;;;5037416;28;20052;-71
2023/09/09 09:20:40;;;;;;;7.97;6.32;;;30.70;74.70;;;;;;5071149;28;20045;-71
2023/09/09 09:23:06;;;;;;;7.93;6.38;;;30.80;74.70;;;;;;5055849;28;20080;-70
2023/09/09 09:25:37;;;;;;;8.45;6.45;;;30.40;74.40;;;;;;5072521;28;20095;-72
2023/09/09 09:28:03;;;;;;;7.10;6.28;;;30.40;74.70;;;;;;5040463;28;20135;-69
2023/09/09 09:30:32;;;;;;;9.27;6.57;;;30.50;74.30;;;;;;5048819;28;20109;-71
2023/09/09 09:32:58;;;;;;;7.60;6.60;;;30.30;74.30;;;;;;5057936;28;20429;-72
2023/09/09 09:35:31;;;;;;;6.93;6.22;;;30.60;74.60;;;;;;5057331;28;20045;-72
2023/09/09 09:38:01;;;;;;;7.70;6.88;;;30.80;75.20;;;;;;5040628;28;20057;-71
2023/09/09 09:40:28;;;;;;;9.45;7.03;;;30.30;74.80;;;;;;5071999;28;20401;-69
2023/09/09 09:42:55;;;;;;;8.05;7.20;;;31.20;75.50;;;;;;5040595;28;20067;-71
2023/09/09 09:45:28;;;;;;;9.45;6.90;;;30.50;74.50;;;;;;5040779;28;20086;-72
2023/09/09 09:47:54;;;;;;;8.93;7.32;;;30.70;73.50;;;;;;5022848;28;20101;-70
2023/09/09 09:50:30;;;;;;;7.20;6.50;;;30.60;74.80;;;;;;5055064;28;20040;-71
2023/09/09 09:52:58;;;;;;;8.65;7.15;;;30.40;74.80;;;;;;5040089;28;20120;-71
2023/09/09 09:55:25;;;;;;;7.32;6.53;;;30.30;74.70;;;;;;5037117;28;20151;-69
2023/09/09 09:57:53;;;;;;;8.75;7.35;;;30.70;75.00;;;;;;5054828;28;20136;-71
2023/09/09 10:00:19;;;;;;;10.00;6.93;;;30.60;75.00;;;;;;5037370;28;20098;-71
2023/09/09 10:02:45;;;;;;;7.68;6.88;;;30.50;74.80;;;;;;5029623;28;20144;-72
2023/09/09 10:05:14;;;;;;;8.80;7.05;;;30.50;75.10;;;;;;5038801;28;20039;-71
2023/09/09 10:07:44;;;;;;;7.88;6.70;;;30.50;75.20;;;;;;5046457;28;20045;-71
2023/09/09 10:10:10;;;;;;;10.43;7.15;;;30.40;75.20;;;;;;5036745;28;20045;-71
2023/09/09 10:12:48;;;;;;;9.95;6.75;;;30.50;75.10;;;;;;5034582;28;20069;-70
2023/09/09 10:15:15;;;;;;;9.30;6.82;;;30.50;73.90;;;;;;5056954;28;20079;-72
2023/09/09 10:17:41;;;;;;;9.18;6.60;;;30.40;75.30;;;;;;5053362;28;20056;-72
2023/09/09 10:20:07;;;;;;;8.25;7.15;;;30.30;74.90;;;;;;5036942;28;20041;-71
2023/09/09 10:22:33;;;;;;;8.63;7.30;;;30.60;75.50;;;;;;5066358;28;20137;-71
2023/09/09 10:24:59;;;;;;;8.05;6.82;;;30.60;75.80;;;;;;5044137;28;20048;-72
2023/09/09 10:27:25;;;;;;;8.25;7.20;;;30.60;75.20;;;;;;5023734;28;20072;-72
2023/09/09 10:29:52;;;;;;;7.47;6.57;;;30.40;75.40;;;;;;5036730;28;20052;-72
2023/09/09 10:32:18;;;;;;;8.40;6.57;;;30.50;75.60;;;;;;5053228;28;20487;-70
2023/09/09 10:34:43;;;;;;;8.85;7.22;;;30.40;75.50;;;;;;5040267;28;20090;-71
2023/09/09 10:37:09;;;;;;;7.63;6.82;;;30.70;75.80;;;;;;5053078;28;20405;-72
2023/09/09 10:39:35;;;;;;;8.45;6.97;;;30.40;75.50;;;;;;5052939;28;20498;-72
2023/09/09 10:42:01;;;;;;;8.93;7.07;;;30.60;75.90;;;;;;5053145;28;20061;-71
2023/09/09 10:44:27;;;;;;;9.07;6.97;;;30.50;75.60;;;;;;5062954;28;20078;-71
2023/09/09 10:46:55;;;;;;;9.45;6.95;;;28.30;74.10;;;;;;5037133;28;20048;-72
2023/09/09 10:49:25;;;;;;;8.35;6.60;;;30.40;75.70;;;;;;5036854;28;20112;-72
2023/09/09 10:51:51;;;;;;;7.90;7.10;;;30.70;76.30;;;;;;5036235;28;20056;-72
2023/09/09 10:54:18;;;;;;;9.68;6.80;;;29.80;75.10;;;;;;5036356;28;20037;-72
2023/09/09 10:56:46;;;;;;;7.43;6.57;;;30.50;76.00;;;;;;5041025;28;20094;-72
2023/09/09 10:59:16;;;;;;;7.90;7.10;;;30.60;76.10;;;;;;5056354;28;20486;-72
2023/09/09 11:01:42;;;;;;;8.55;7.22;;;29.80;75.70;;;;;;5073684;28;20056;-70
2023/09/09 11:04:22;;;;;;;8.35;6.97;;;30.70;76.50;;;;;;5037700;28;20040;-71
2023/09/09 11:07:20;;;;;;;7.57;6.55;;;30.40;74.70;;;;;;5055182;28;20048;-70
2023/09/09 11:09:52;;;;;;;8.18;6.57;;;31.20;77.60;;;;;;5048152;28;20049;-72
2023/09/09 11:12:25;;;;;;;7.28;6.30;;;30.60;76.10;;;;;;4982861;28;20100;-72
2023/09/09 11:15:00;;;;;;;9.43;6.78;;;30.70;75.90;;;;;;5029973;28;20037;-71
2023/09/09 11:17:29;;;;;;;7.05;6.35;;;31.20;76.70;;;;;;5014362;28;20092;-71
2023/09/09 11:19:54;;;;;;;7.88;6.85;;;31.40;76.80;;;;;;5014397;28;20085;-71
2023/09/09 11:22:20;;;;;;;8.10;6.30;;;30.80;75.70;;;;;;4998383;28;20088;-72
2023/09/09 11:24:46;;;;;;;7.78;6.97;;;30.40;76.30;;;;;;4997509;28;20045;-70
2023/09/09 11:27:12;;;;;;;8.57;6.95;;;30.80;76.20;;;;;;5014451;28;20107;-70
2023/09/09 11:29:38;;;;;;;6.93;6.22;;;29.40;74.80;;;;;;5006121;28;20467;-72
2023/09/09 11:32:10;;;;;;;8.38;6.40;;;30.60;75.60;;;;;;4994975;28;20046;-72
2023/09/09 11:34:36;;;;;;;;;;;30.60;76.60;;;;;;4979470;28;20042;-71
2023/09/09 11:37:03;;;;;;;9.68;6.78;;;30.60;76.30;;;;;;4993149;28;20041;-72
2023/09/09 11:39:29;;;;;;;9.45;6.70;;;30.50;75.70;;;;;;5010946;28;20049;-70
2023/09/09 11:41:55;;;;;;;9.43;6.43;;;31.00;76.00;;;;;;5011298;28;20042;-71
2023/09/09 11:44:21;;;;;;;7.15;6.45;;;30.70;76.20;;;;;;5014307;28;20053;-72
2023/09/09 11:46:47;;;;;;;8.75;6.65;;;31.10;75.90;;;;;;5037037;28;20042;-72
2023/09/09 11:49:15;;;;;;;7.60;6.80;;;30.60;76.00;;;;;;5048256;28;20047;-72
2023/09/09 11:51:41;;;;;;;10.15;6.82;;;31.00;76.20;;;;;;5048174;28;20421;-72
2023/09/09 11:54:10;;;;;;;9.55;6.82;;;30.90;76.10;;;;;;5049257;28;20069;-71
2023/09/09 11:56:36;;;;;;;8.77;6.93;;;30.90;76.10;;;;;;4998550;28;20045;-72
2023/09/09 11:59:09;;;;;;;8.05;6.88;;;31.00;76.10;;;;;;5031813;28;20056;-72
2023/09/09 12:01:42;;;;;;;9.30;6.85;;;30.80;76.10;;;;;;5033052;28;20041;-72
2023/09/09 12:04:08;;;;;;;8.80;6.57;;;31.00;76.40;;;;;;5049872;28;20515;-72
2023/09/09 12:06:35;;;;;;;7.75;6.80;;;30.90;76.10;;;;;;5046878;28;20049;-72
2023/09/09 12:09:01;;;;;;;7.93;6.70;;;31.10;76.00;;;;;;5034639;28;20053;-71
2023/09/09 12:11:27;;;;;;;9.10;6.50;;;30.90;76.10;;;;;;5018382;28;20048;-72
2023/09/09 12:13:53;;;;;;;9.23;6.30;;;30.80;75.70;;;;;;5016856;28;20402;-68
2023/09/09 12:16:18;;;;;;;7.28;6.20;;;29.50;74.70;;;;;;5061165;28;20037;-72
2023/09/09 12:18:52;;;;;;;8.98;6.57;;;31.00;75.70;;;;;;5014760;28;20092;-71
2023/09/09 12:21:18;;;;;;;7.63;6.28;;;31.30;76.20;;;;;;5016868;28;20124;-72
2023/09/09 12:23:45;;;;;;;8.77;6.35;;;31.10;75.90;;;;;;5052228;28;20067;-71
2023/09/09 12:26:17;;;;;;;10.27;6.38;;;31.00;75.70;;;;;;5050044;28;20052;-70
2023/09/09 12:28:43;;;;;;;;;;;30.80;74.20;;;;;;5060831;28;20072;-72
2023/09/09 12:31:10;;;;;;;9.40;6.07;;;30.80;76.20;;;;;;5072590;28;20281;-72
2023/09/09 12:33:47;;;;;;;11.57;6.57;;;31.20;75.80;;;;;;5072216;28;20051;-71
2023/09/09 12:36:18;;;;;;;7.45;6.63;;;31.20;76.10;;;;;;5052697;28;20071;-72
2023/09/09 12:38:46;;;;;;;7.90;6.47;;;30.90;75.70;;;;;;5018574;28;20071;-72
2023/09/09 12:41:15;;;;;;;11.05;6.32;;;31.20;75.50;;;;;;5036219;28;20052;-72
2023/09/09 12:43:41;;;;;;;7.93;6.22;;;30.70;75.60;;;;;;5037773;28;20053;-72
2023/09/09 12:46:18;;;;;;;10.23;6.80;;;31.30;75.80;;;;;;5038370;28;20110;-72
2023/09/09 12:48:55;;;;;;;8.23;6.10;;;31.80;76.60;;;;;;5062751;28;20064;-71
2023/09/09 12:51:22;;;;;;;7.40;6.00;;;31.10;76.00;;;;;;5057395;28;20064;-72
2023/09/09 12:53:48;;;;;;;9.65;6.20;;;31.20;75.80;;;;;;5069588;28;20053;-73
2023/09/09 12:56:16;;;;;;;8.10;6.50;;;31.40;76.40;;;;;;5055916;28;20124;-72
2023/09/09 12:58:42;;;;;;;8.45;6.68;;;33.00;75.70;;;;;;5038779;28;20470;-72
2023/09/09 13:01:08;;;;;;;8.48;7.22;;;31.00;76.00;;;;;;5067060;28;20040;-72
2023/09/09 13:03:34;;;;;;;8.68;6.55;;;31.20;75.90;;;;;;5058337;28;20076;-72
2023/09/09 13:06:00;;;;;;;8.40;7.05;;;31.00;75.50;;;;;;5076188;28;20521;-72
2023/09/09 13:08:26;;;;;;;8.23;6.72;;;31.40;76.00;;;;;;5056639;28;20482;-72
2023/09/09 13:10:52;;;;;;;8.70;6.95;;;31.20;75.80;;;;;;5048134;28;20512;-71
2023/09/09 13:13:18;;;;;;;7.90;7.07;;;31.30;76.20;;;;;;5041535;28;20051;-71
2023/09/09 13:15:44;;;;;;;7.75;6.47;;;31.10;76.40;;;;;;5057922;28;20515;-72
2023/09/09 13:18:10;;;;;;;8.82;7.03;;;31.00;76.90;;;;;;5041224;28;20048;-72
2023/09/09 13:20:36;;;;;;;8.52;6.90;;;31.00;76.50;;;;;;5072529;28;20037;-70
2023/09/09 13:23:02;;;;;;;7.70;6.90;;;32.00;76.80;;;;;;5024527;28;20049;-71
2023/09/09 13:25:28;;;;;;;7.43;6.53;;;31.10;75.90;;;;;;5041090;28;20091;-71
2023/09/09 13:27:54;;;;;;;7.05;6.35;;;30.90;76.20;;;;;;5083646;28;20053;-71
2023/09/09 13:30:20;;;;;;;9.23;7.32;;;30.80;76.20;;;;;;5053991;28;20204;-71
2023/09/09 13:32:47;;;;;;;8.25;7.03;;;30.70;75.50;;;;;;5055137;28;20049;-71
2023/09/09 13:35:13;;;;;;;8.57;6.38;;;31.00;76.10;;;;;;5022654;28;20434;-70
2023/09/09 13:37:38;;;;;;;7.50;6.53;;;30.70;76.30;;;;;;5072525;28;20058;-68
2023/09/09 13:40:05;;;;;;;7.90;6.47;;;31.20;76.70;;;;;;5090767;28;20409;-66
2023/09/09 13:42:31;;;;;;;8.23;6.80;;;31.20;75.60;;;;;;5053487;28;20418;-71
2023/09/09 13:44:57;;;;;;;8.32;7.38;;;31.20;76.50;;;;;;5078024;28;20128;-70
2023/09/09 13:47:23;;;;;;;7.70;6.90;;;31.50;76.80;;;;;;5059678;28;20103;-71
2023/09/09 13:49:49;;;;;;;7.20;6.50;;;31.10;76.20;;;;;;5038168;28;20481;-70
2023/09/09 13:52:15;;;;;;;8.82;6.80;;;30.80;76.00;;;;;;5072000;28;20131;-72
2023/09/09 13:54:41;;;;;;;7.93;7.03;;;31.00;76.20;;;;;;5041091;28;20048;-71
2023/09/09 13:57:07;;;;;;;7.78;6.97;;;30.80;75.90;;;;;;5056409;28;20178;-69
2023/09/09 13:59:33;;;;;;;7.93;7.13;;;30.90;76.20;;;;;;5040371;28;20040;-71
2023/09/09 14:02:01;;;;;;;8.75;6.75;;;30.90;76.50;;;;;;5031129;28;20040;-69